KMKT

Mankato Regional Airport

Mankato, Minnesota, USA
METAR KMKT 181356Z AUTO 00000KT 5SM BR CLR 19/19 A3011 RMK AO2 SLP193 T01940194
Observed Flight Rules
Aug-18 @ 13:56 UTC (56 minutes ago) Marginal Visual Flight Rules
Visibility Clouds Conditions
5 miles
  • Clear skies
  • Mist
Temperatures Readings
Current 19°C / 66°F
Dewpoint 19°C / 66°F
Humidity 100%
Altimeter 30.11" Hg
Pressure 1019.3 hPa
Elevation 311
METAR KMKT 181356Z AUTO 00000KT 5SM BR CLR 19/19 A3011 RMK AO2 SLP193 T01940194
Observed Flight Rules
Aug-18 @ 13:56 UTC
(56 minutes ago)
MVFR
Clouds
  • Clear skies
Conditions
  • Mist
Temperature Dewpoint
19°C / 66°F 19°C / 66°F
Humidity Altimeter Pressure
100% 30.11" Hg 1019.3 hPa